createdAt,value
2023-11-18T07:44:08.794Z,97961.84
2023-11-18T07:46:44.688Z,97959.75
2023-11-18T07:49:12.625Z,97961.75
2023-11-18T07:51:41.696Z,97968.25
2023-11-18T07:54:09.329Z,97980.25
2023-11-18T07:56:43.448Z,97981.53
2023-11-18T07:59:10.420Z,97976.31
2023-11-18T08:01:46.015Z,97971.94
2023-11-18T08:04:12.827Z,97968.50
2023-11-18T08:06:39.556Z,97971.84
2023-11-18T08:09:06.365Z,97985.81
2023-11-18T08:11:33.165Z,97991.25
2023-11-18T08:13:59.973Z,97992.38
2023-11-18T17:27:08.663Z,97794.69
2023-11-18T17:29:35.716Z,97804.34
2023-11-18T17:32:02.809Z,97805.72
2023-11-18T17:34:29.836Z,97804.34
2023-11-18T17:36:56.833Z,97807.31
2023-11-18T17:39:23.799Z,97804.47
2023-11-18T17:41:51.170Z,97798.72
2023-11-18T17:44:18.157Z,97802.53
2023-11-18T17:46:45.130Z,97799.88
2023-11-18T17:49:12.291Z,97788.28
2023-11-18T17:51:39.666Z,97794.44
2023-11-18T17:54:06.625Z,97792.09
2023-11-18T17:56:33.685Z,97777.19
2023-11-18T17:59:00.727Z,97769.84
2023-11-18T18:01:27.862Z,97761.75
2023-11-18T18:03:54.857Z,97763.34
2023-11-18T18:06:21.857Z,97772.06
2023-11-18T18:08:48.893Z,97768.97
2023-11-18T18:11:16.042Z,97773.16
2023-11-18T18:13:43.033Z,97766.13
2023-11-18T18:16:10.077Z,97765.66
2023-11-18T18:18:37.144Z,97770.16
2023-11-18T18:21:06.283Z,97762.69
2023-11-18T18:23:33.173Z,97773.16
2023-11-18T18:26:00.248Z,97775.56
2023-11-18T18:28:27.237Z,97764.03
2023-11-18T18:30:54.094Z,97763.53
2023-11-18T18:33:20.987Z,97760.09
2023-11-18T18:35:47.977Z,97768.31
2023-11-18T18:38:15.028Z,97769.53
2023-11-18T18:40:42.036Z,97767.16
2023-11-18T18:43:09.530Z,97771.72
2023-11-18T18:45:43.063Z,97769.19
2023-11-18T19:28:39.978Z,97737.66
2023-11-18T19:31:06.903Z,97747.75
2023-11-18T19:33:33.865Z,97756.28
2023-11-18T19:36:00.867Z,97740.94
2023-11-18T19:38:27.728Z,97739.00
2023-11-18T19:40:54.619Z,97736.25
2023-11-18T19:43:21.715Z,97737.91
2023-11-18T19:45:48.641Z,97737.09
2023-11-18T19:48:15.584Z,97736.13
2023-11-18T19:50:42.786Z,97736.53
2023-11-18T19:53:09.829Z,97734.19
2023-11-18T19:55:36.761Z,97731.97
2023-11-18T19:58:03.739Z,97737.19
2023-11-18T20:00:30.660Z,97736.69
2023-11-18T20:02:57.859Z,97718.56
2023-11-18T20:05:25.017Z,97716.56
2023-11-18T20:07:52.203Z,97713.50
2023-11-18T20:10:19.115Z,97718.97
2023-11-18T20:12:46.099Z,97705.41
2023-11-18T20:15:13.407Z,97708.63
2023-11-18T20:17:40.491Z,97707.31
2023-11-18T20:20:07.509Z,97713.59
2023-11-18T20:22:34.463Z,97717.84
2023-11-18T20:25:01.420Z,97723.47
2023-11-18T20:27:28.351Z,97732.41
2023-11-18T20:29:55.235Z,97735.00
2023-11-18T20:32:22.225Z,97741.09
2023-11-18T20:34:49.208Z,97731.03
2023-11-18T20:37:16.138Z,97727.81
2023-11-18T20:39:42.994Z,97724.06
2023-11-18T20:42:10.073Z,97714.88
2023-11-18T20:44:38.746Z,97705.47
2023-11-18T20:47:06.063Z,97712.91
2023-11-18T20:49:33.019Z,97709.84
2023-11-18T20:51:59.951Z,97725.19
2023-11-18T20:54:26.872Z,97715.81
2023-11-18T20:56:53.779Z,97716.78
2023-11-18T20:59:20.819Z,97715.28
2023-11-18T21:01:47.745Z,97714.53
2023-11-18T21:04:18.687Z,97713.06
2023-11-18T21:06:53.507Z,97711.25
2023-11-18T21:09:24.566Z,97719.56
2023-11-18T21:12:16.388Z,97712.34
2023-11-18T21:14:47.448Z,97706.13
2023-11-18T21:17:44.168Z,97685.41
2023-11-18T21:20:11.128Z,97683.19
2023-11-18T21:22:37.941Z,97677.91
2023-11-18T21:25:04.668Z,97676.00
2023-11-18T21:27:31.470Z,97691.28
2023-11-18T21:29:58.183Z,97674.50
2023-11-18T21:32:24.973Z,97677.53
2023-11-18T21:34:51.850Z,97681.69
2023-11-18T21:37:21.684Z,97683.50
2023-11-18T21:39:48.477Z,97692.94
2023-11-18T21:42:15.424Z,97687.00
2023-11-18T21:44:42.275Z,97674.31
2023-11-18T21:49:51.834Z,97673.69
2023-11-18T21:52:20.205Z,97656.66
2023-11-18T21:54:47.001Z,97658.31
2023-11-18T21:57:13.938Z,97655.66
2023-11-18T21:59:40.742Z,97649.72
